sensor_id;sensor_type;location;lat;lon;timestamp;P1;durP1;ratioP1;P2;durP2;ratioP2
19727;SDS011;10015;52.530;13.390;2023-10-09T00:02:08;3.43;;;1.90;;
19727;SDS011;10015;52.530;13.390;2023-10-09T00:04:39;4.40;;;1.83;;
19727;SDS011;10015;52.530;13.390;2023-10-09T00:07:11;4.07;;;1.73;;
19727;SDS011;10015;52.530;13.390;2023-10-09T00:09:37;3.77;;;1.57;;
19727;SDS011;10015;52.530;13.390;2023-10-09T00:12:19;4.57;;;1.73;;
19727;SDS011;10015;52.530;13.390;2023-10-09T00:14:49;2.10;;;1.90;;
19727;SDS011;10015;52.530;13.390;2023-10-09T00:17:16;3.40;;;1.60;;
19727;SDS011;10015;52.530;13.390;2023-10-09T00:19:46;4.00;;;1.90;;
19727;SDS011;10015;52.530;13.390;2023-10-09T00:22:16;3.07;;;1.70;;
19727;SDS011;10015;52.530;13.390;2023-10-09T00:24:55;2.87;;;1.63;;
19727;SDS011;10015;52.530;13.390;2023-10-09T00:27:38;4.10;;;1.80;;
19727;SDS011;10015;52.530;13.390;2023-10-09T00:30:14;3.03;;;1.77;;
19727;SDS011;10015;52.530;13.390;2023-10-09T00:32:46;3.93;;;1.97;;
19727;SDS011;10015;52.530;13.390;2023-10-09T00:35:26;3.10;;;1.73;;
19727;SDS011;10015;52.530;13.390;2023-10-09T00:38:05;2.30;;;1.67;;
19727;SDS011;10015;52.530;13.390;2023-10-09T00:40:40;3.30;;;2.10;;
19727;SDS011;10015;52.530;13.390;2023-10-09T00:43:12;3.20;;;2.13;;
19727;SDS011;10015;52.530;13.390;2023-10-09T00:45:39;4.53;;;2.10;;
19727;SDS011;10015;52.530;13.390;2023-10-09T00:48:09;4.70;;;2.17;;
19727;SDS011;10015;52.530;13.390;2023-10-09T00:50:35;4.93;;;2.43;;
19727;SDS011;10015;52.530;13.390;2023-10-09T00:53:01;5.83;;;2.10;;
19727;SDS011;10015;52.530;13.390;2023-10-09T00:55:36;4.23;;;2.70;;
19727;SDS011;10015;52.530;13.390;2023-10-09T00:58:08;6.43;;;2.40;;
19727;SDS011;10015;52.530;13.390;2023-10-09T01:00:39;5.00;;;2.40;;
19727;SDS011;10015;52.530;13.390;2023-10-09T01:03:09;5.30;;;2.20;;
19727;SDS011;10015;52.530;13.390;2023-10-09T01:05:43;5.53;;;2.30;;
19727;SDS011;10015;52.530;13.390;2023-10-09T01:08:30;5.07;;;2.40;;
19727;SDS011;10015;52.530;13.390;2023-10-09T01:13:46;5.10;;;2.40;;
19727;SDS011;10015;52.530;13.390;2023-10-09T01:16:22;4.97;;;2.07;;
19727;SDS011;10015;52.530;13.390;2023-10-09T01:21:19;3.33;;;2.10;;
19727;SDS011;10015;52.530;13.390;2023-10-09T01:23:50;3.47;;;2.13;;
19727;SDS011;10015;52.530;13.390;2023-10-09T01:29:08;4.30;;;1.87;;
19727;SDS011;10015;52.530;13.390;2023-10-09T01:31:41;5.00;;;2.30;;
19727;SDS011;10015;52.530;13.390;2023-10-09T01:34:41;4.73;;;1.90;;
19727;SDS011;10015;52.530;13.390;2023-10-09T01:37:19;4.83;;;2.27;;
19727;SDS011;10015;52.530;13.390;2023-10-09T01:39:52;4.20;;;2.03;;
19727;SDS011;10015;52.530;13.390;2023-10-09T01:42:23;3.83;;;2.03;;
19727;SDS011;10015;52.530;13.390;2023-10-09T01:44:55;3.97;;;2.00;;
19727;SDS011;10015;52.530;13.390;2023-10-09T01:47:23;5.70;;;2.23;;
19727;SDS011;10015;52.530;13.390;2023-10-09T01:49:51;3.07;;;1.87;;
19727;SDS011;10015;52.530;13.390;2023-10-09T01:52:19;3.20;;;1.90;;
19727;SDS011;10015;52.530;13.390;2023-10-09T01:54:46;5.07;;;2.03;;
19727;SDS011;10015;52.530;13.390;2023-10-09T01:57:16;3.80;;;1.97;;
19727;SDS011;10015;52.530;13.390;2023-10-09T01:59:49;4.73;;;2.00;;
19727;SDS011;10015;52.530;13.390;2023-10-09T02:02:19;6.07;;;2.13;;
19727;SDS011;10015;52.530;13.390;2023-10-09T02:04:52;3.40;;;1.90;;
19727;SDS011;10015;52.530;13.390;2023-10-09T02:07:19;4.17;;;1.90;;
19727;SDS011;10015;52.530;13.390;2023-10-09T02:09:52;6.20;;;2.00;;
19727;SDS011;10015;52.530;13.390;2023-10-09T02:12:21;3.97;;;2.10;;
19727;SDS011;10015;52.530;13.390;2023-10-09T02:14:49;6.33;;;2.40;;
19727;SDS011;10015;52.530;13.390;2023-10-09T02:17:19;3.07;;;2.00;;
19727;SDS011;10015;52.530;13.390;2023-10-09T02:19:45;4.07;;;2.10;;
19727;SDS011;10015;52.530;13.390;2023-10-09T02:22:15;4.03;;;2.30;;
19727;SDS011;10015;52.530;13.390;2023-10-09T02:24:42;4.17;;;2.17;;
19727;SDS011;10015;52.530;13.390;2023-10-09T02:27:18;3.43;;;2.17;;
19727;SDS011;10015;52.530;13.390;2023-10-09T02:30:03;5.63;;;2.63;;
19727;SDS011;10015;52.530;13.390;2023-10-09T02:32:53;4.00;;;2.30;;
19727;SDS011;10015;52.530;13.390;2023-10-09T02:35:31;5.13;;;2.10;;
19727;SDS011;10015;52.530;13.390;2023-10-09T02:38:04;7.10;;;2.33;;
19727;SDS011;10015;52.530;13.390;2023-10-09T02:40:33;5.43;;;2.30;;
19727;SDS011;10015;52.530;13.390;2023-10-09T02:43:20;5.13;;;2.17;;
19727;SDS011;10015;52.530;13.390;2023-10-09T02:45:46;4.83;;;2.20;;
19727;SDS011;10015;52.530;13.390;2023-10-09T02:48:16;5.17;;;2.60;;
19727;SDS011;10015;52.530;13.390;2023-10-09T02:50:46;5.33;;;2.60;;
19727;SDS011;10015;52.530;13.390;2023-10-09T02:53:12;5.10;;;2.60;;
19727;SDS011;10015;52.530;13.390;2023-10-09T02:55:45;5.90;;;2.60;;
19727;SDS011;10015;52.530;13.390;2023-10-09T02:58:34;4.47;;;2.43;;
19727;SDS011;10015;52.530;13.390;2023-10-09T03:01:02;5.63;;;2.53;;
19727;SDS011;10015;52.530;13.390;2023-10-09T03:03:28;3.73;;;2.20;;
19727;SDS011;10015;52.530;13.390;2023-10-09T03:05:54;4.63;;;2.57;;
19727;SDS011;10015;52.530;13.390;2023-10-09T03:08:20;4.93;;;2.70;;
19727;SDS011;10015;52.530;13.390;2023-10-09T03:10:46;6.50;;;2.53;;
19727;SDS011;10015;52.530;13.390;2023-10-09T03:13:13;5.07;;;2.17;;
19727;SDS011;10015;52.530;13.390;2023-10-09T03:15:44;4.43;;;2.43;;
19727;SDS011;10015;52.530;13.390;2023-10-09T03:18:11;4.53;;;2.50;;
19727;SDS011;10015;52.530;13.390;2023-10-09T03:20:39;4.87;;;2.40;;
19727;SDS011;10015;52.530;13.390;2023-10-09T03:23:06;4.37;;;2.37;;
19727;SDS011;10015;52.530;13.390;2023-10-09T03:25:33;4.40;;;2.23;;
19727;SDS011;10015;52.530;13.390;2023-10-09T03:27:59;6.40;;;2.40;;
19727;SDS011;10015;52.530;13.390;2023-10-09T03:30:25;4.27;;;2.33;;
19727;SDS011;10015;52.530;13.390;2023-10-09T03:32:52;4.20;;;1.80;;
19727;SDS011;10015;52.530;13.390;2023-10-09T03:35:19;4.40;;;1.90;;
19727;SDS011;10015;52.530;13.390;2023-10-09T03:37:59;4.43;;;2.30;;
19727;SDS011;10015;52.530;13.390;2023-10-09T03:40:31;4.87;;;2.37;;
19727;SDS011;10015;52.530;13.390;2023-10-09T03:42:57;3.37;;;1.77;;
19727;SDS011;10015;52.530;13.390;2023-10-09T03:45:23;4.83;;;2.00;;
19727;SDS011;10015;52.530;13.390;2023-10-09T03:47:52;4.23;;;2.03;;
19727;SDS011;10015;52.530;13.390;2023-10-09T03:50:23;4.30;;;1.97;;
19727;SDS011;10015;52.530;13.390;2023-10-09T03:52:52;4.63;;;2.07;;
19727;SDS011;10015;52.530;13.390;2023-10-09T03:55:20;6.07;;;2.07;;
19727;SDS011;10015;52.530;13.390;2023-10-09T03:57:48;4.87;;;2.50;;
19727;SDS011;10015;52.530;13.390;2023-10-09T04:00:14;5.90;;;2.30;;
19727;SDS011;10015;52.530;13.390;2023-10-09T04:02:41;5.93;;;2.27;;
19727;SDS011;10015;52.530;13.390;2023-10-09T04:05:07;4.37;;;2.03;;
19727;SDS011;10015;52.530;13.390;2023-10-09T04:07:33;5.27;;;2.30;;
19727;SDS011;10015;52.530;13.390;2023-10-09T04:10:00;4.20;;;2.00;;
19727;SDS011;10015;52.530;13.390;2023-10-09T04:12:46;4.63;;;2.10;;
19727;SDS011;10015;52.530;13.390;2023-10-09T04:15:14;4.73;;;2.43;;
19727;SDS011;10015;52.530;13.390;2023-10-09T04:17:41;3.87;;;2.37;;
19727;SDS011;10015;52.530;13.390;2023-10-09T04:20:08;3.93;;;2.23;;
19727;SDS011;10015;52.530;13.390;2023-10-09T04:22:43;4.33;;;2.13;;
19727;SDS011;10015;52.530;13.390;2023-10-09T04:25:19;4.73;;;2.40;;
19727;SDS011;10015;52.530;13.390;2023-10-09T04:27:53;3.40;;;2.00;;
19727;SDS011;10015;52.530;13.390;2023-10-09T04:30:40;4.47;;;2.23;;
19727;SDS011;10015;52.530;13.390;2023-10-09T04:33:14;4.50;;;2.13;;
19727;SDS011;10015;52.530;13.390;2023-10-09T04:36:05;4.93;;;2.23;;
19727;SDS011;10015;52.530;13.390;2023-10-09T04:38:51;2.93;;;1.63;;
19727;SDS011;10015;52.530;13.390;2023-10-09T04:41:21;4.33;;;2.40;;
19727;SDS011;10015;52.530;13.390;2023-10-09T04:43:58;3.90;;;1.97;;
19727;SDS011;10015;52.530;13.390;2023-10-09T04:46:46;4.43;;;2.10;;
19727;SDS011;10015;52.530;13.390;2023-10-09T04:49:34;3.27;;;2.07;;
19727;SDS011;10015;52.530;13.390;2023-10-09T04:52:13;7.30;;;2.47;;
19727;SDS011;10015;52.530;13.390;2023-10-09T04:54:45;4.50;;;2.47;;
19727;SDS011;10015;52.530;13.390;2023-10-09T04:57:30;4.10;;;2.20;;
19727;SDS011;10015;52.530;13.390;2023-10-09T05:00:06;4.73;;;2.17;;
19727;SDS011;10015;52.530;13.390;2023-10-09T05:02:50;5.77;;;2.37;;
19727;SDS011;10015;52.530;13.390;2023-10-09T05:05:22;5.40;;;2.83;;
19727;SDS011;10015;52.530;13.390;2023-10-09T05:08:07;6.27;;;2.80;;
19727;SDS011;10015;52.530;13.390;2023-10-09T05:11:00;8.17;;;2.70;;
19727;SDS011;10015;52.530;13.390;2023-10-09T05:13:32;3.20;;;2.07;;
19727;SDS011;10015;52.530;13.390;2023-10-09T05:16:08;4.47;;;2.40;;
19727;SDS011;10015;52.530;13.390;2023-10-09T05:18:45;6.60;;;3.00;;
19727;SDS011;10015;52.530;13.390;2023-10-09T05:21:22;4.27;;;2.70;;
19727;SDS011;10015;52.530;13.390;2023-10-09T05:23:50;5.07;;;2.80;;
19727;SDS011;10015;52.530;13.390;2023-10-09T05:26:34;4.87;;;2.67;;
19727;SDS011;10015;52.530;13.390;2023-10-09T05:29:23;6.40;;;2.67;;
19727;SDS011;10015;52.530;13.390;2023-10-09T05:32:03;5.30;;;2.50;;
19727;SDS011;10015;52.530;13.390;2023-10-09T05:34:39;9.13;;;2.60;;
19727;SDS011;10015;52.530;13.390;2023-10-09T05:37:27;6.57;;;2.73;;
19727;SDS011;10015;52.530;13.390;2023-10-09T05:40:08;5.13;;;2.23;;
19727;SDS011;10015;52.530;13.390;2023-10-09T05:42:45;4.50;;;2.00;;
19727;SDS011;10015;52.530;13.390;2023-10-09T05:45:23;3.43;;;1.93;;
19727;SDS011;10015;52.530;13.390;2023-10-09T05:48:07;4.97;;;2.00;;
19727;SDS011;10015;52.530;13.390;2023-10-09T05:50:39;3.57;;;2.13;;
19727;SDS011;10015;52.530;13.390;2023-10-09T05:53:24;6.47;;;2.67;;
19727;SDS011;10015;52.530;13.390;2023-10-09T05:56:22;4.87;;;2.30;;
19727;SDS011;10015;52.530;13.390;2023-10-09T05:59:08;6.83;;;2.47;;
19727;SDS011;10015;52.530;13.390;2023-10-09T06:01:52;4.47;;;2.27;;
19727;SDS011;10015;52.530;13.390;2023-10-09T06:04:37;5.97;;;2.30;;
19727;SDS011;10015;52.530;13.390;2023-10-09T06:07:28;4.83;;;2.90;;
19727;SDS011;10015;52.530;13.390;2023-10-09T06:10:14;4.33;;;2.50;;
19727;SDS011;10015;52.530;13.390;2023-10-09T06:12:45;5.23;;;2.20;;
19727;SDS011;10015;52.530;13.390;2023-10-09T06:15:11;7.00;;;2.20;;
19727;SDS011;10015;52.530;13.390;2023-10-09T06:17:55;5.23;;;2.70;;
19727;SDS011;10015;52.530;13.390;2023-10-09T06:20:41;3.83;;;2.40;;
19727;SDS011;10015;52.530;13.390;2023-10-09T06:23:25;3.73;;;2.00;;
19727;SDS011;10015;52.530;13.390;2023-10-09T06:26:11;5.43;;;2.53;;
19727;SDS011;10015;52.530;13.390;2023-10-09T06:28:49;3.83;;;2.30;;
19727;SDS011;10015;52.530;13.390;2023-10-09T06:31:36;4.13;;;2.03;;
19727;SDS011;10015;52.530;13.390;2023-10-09T06:34:21;3.47;;;2.30;;
19727;SDS011;10015;52.530;13.390;2023-10-09T06:36:58;4.23;;;2.47;;
19727;SDS011;10015;52.530;13.390;2023-10-09T06:39:43;6.53;;;2.83;;
19727;SDS011;10015;52.530;13.390;2023-10-09T06:42:19;5.43;;;2.83;;
19727;SDS011;10015;52.530;13.390;2023-10-09T06:45:10;5.40;;;2.40;;
19727;SDS011;10015;52.530;13.390;2023-10-09T06:47:40;4.47;;;2.53;;
19727;SDS011;10015;52.530;13.390;2023-10-09T06:50:10;4.70;;;2.50;;
19727;SDS011;10015;52.530;13.390;2023-10-09T06:52:46;3.87;;;2.27;;
19727;SDS011;10015;52.530;13.390;2023-10-09T06:55:38;5.03;;;2.57;;
19727;SDS011;10015;52.530;13.390;2023-10-09T06:58:30;5.70;;;2.33;;
19727;SDS011;10015;52.530;13.390;2023-10-09T07:01:07;7.27;;;2.43;;
19727;SDS011;10015;52.530;13.390;2023-10-09T07:03:57;6.03;;;2.60;;
19727;SDS011;10015;52.530;13.390;2023-10-09T07:06:35;3.93;;;2.50;;
19727;SDS011;10015;52.530;13.390;2023-10-09T07:09:02;4.40;;;2.37;;
19727;SDS011;10015;52.530;13.390;2023-10-09T07:11:38;3.83;;;2.47;;
19727;SDS011;10015;52.530;13.390;2023-10-09T07:14:05;4.63;;;2.43;;
19727;SDS011;10015;52.530;13.390;2023-10-09T07:16:32;4.07;;;2.20;;
19727;SDS011;10015;52.530;13.390;2023-10-09T07:19:05;6.03;;;2.50;;
19727;SDS011;10015;52.530;13.390;2023-10-09T07:21:49;4.97;;;2.93;;
19727;SDS011;10015;52.530;13.390;2023-10-09T07:24:22;6.83;;;2.27;;
19727;SDS011;10015;52.530;13.390;2023-10-09T07:27:04;4.37;;;2.10;;
19727;SDS011;10015;52.530;13.390;2023-10-09T07:29:35;4.40;;;2.80;;
19727;SDS011;10015;52.530;13.390;2023-10-09T07:32:16;5.80;;;2.07;;
19727;SDS011;10015;52.530;13.390;2023-10-09T07:34:49;4.03;;;2.60;;
19727;SDS011;10015;52.530;13.390;2023-10-09T07:37:22;6.73;;;2.57;;
19727;SDS011;10015;52.530;13.390;2023-10-09T07:39:52;4.30;;;2.17;;
19727;SDS011;10015;52.530;13.390;2023-10-09T07:42:24;6.80;;;2.83;;
19727;SDS011;10015;52.530;13.390;2023-10-09T07:45:06;7.50;;;2.97;;
19727;SDS011;10015;52.530;13.390;2023-10-09T07:47:47;6.70;;;3.00;;
19727;SDS011;10015;52.530;13.390;2023-10-09T07:50:37;6.03;;;2.83;;
19727;SDS011;10015;52.530;13.390;2023-10-09T07:53:09;4.77;;;2.43;;
19727;SDS011;10015;52.530;13.390;2023-10-09T07:55:44;4.30;;;2.60;;
19727;SDS011;10015;52.530;13.390;2023-10-09T07:58:24;3.87;;;2.47;;
19727;SDS011;10015;52.530;13.390;2023-10-09T08:00:54;6.90;;;2.87;;
19727;SDS011;10015;52.530;13.390;2023-10-09T08:03:33;3.83;;;2.47;;
19727;SDS011;10015;52.530;13.390;2023-10-09T08:06:01;5.10;;;2.33;;
19727;SDS011;10015;52.530;13.390;2023-10-09T08:08:46;3.57;;;2.33;;
19727;SDS011;10015;52.530;13.390;2023-10-09T08:11:43;4.33;;;2.80;;
19727;SDS011;10015;52.530;13.390;2023-10-09T08:14:30;5.93;;;2.90;;
19727;SDS011;10015;52.530;13.390;2023-10-09T08:16:59;5.43;;;3.13;;
19727;SDS011;10015;52.530;13.390;2023-10-09T08:19:57;5.77;;;3.30;;
19727;SDS011;10015;52.530;13.390;2023-10-09T08:22:27;8.30;;;3.53;;
19727;SDS011;10015;52.530;13.390;2023-10-09T08:24:55;7.13;;;3.87;;
19727;SDS011;10015;52.530;13.390;2023-10-09T08:29:58;5.70;;;3.00;;
19727;SDS011;10015;52.530;13.390;2023-10-09T08:32:43;6.57;;;3.53;;
19727;SDS011;10015;52.530;13.390;2023-10-09T08:35:38;5.47;;;3.20;;
19727;SDS011;10015;52.530;13.390;2023-10-09T08:38:22;7.20;;;3.70;;
19727;SDS011;10015;52.530;13.390;2023-10-09T08:40:49;9.83;;;3.30;;
19727;SDS011;10015;52.530;13.390;2023-10-09T08:43:20;7.73;;;3.63;;
19727;SDS011;10015;52.530;13.390;2023-10-09T08:45:54;9.67;;;3.80;;
19727;SDS011;10015;52.530;13.390;2023-10-09T08:48:27;6.33;;;3.40;;
19727;SDS011;10015;52.530;13.390;2023-10-09T08:50:55;5.27;;;3.30;;
19727;SDS011;10015;52.530;13.390;2023-10-09T08:53:22;5.90;;;3.10;;
19727;SDS011;10015;52.530;13.390;2023-10-09T08:55:49;8.43;;;3.67;;
19727;SDS011;10015;52.530;13.390;2023-10-09T08:58:17;8.60;;;3.60;;
19727;SDS011;10015;52.530;13.390;2023-10-09T09:00:50;4.83;;;2.90;;
19727;SDS011;10015;52.530;13.390;2023-10-09T09:03:18;8.27;;;3.60;;
19727;SDS011;10015;52.530;13.390;2023-10-09T09:05:58;7.27;;;3.20;;
19727;SDS011;10015;52.530;13.390;2023-10-09T09:08:30;5.20;;;2.80;;
19727;SDS011;10015;52.530;13.390;2023-10-09T09:11:02;5.07;;;3.10;;
19727;SDS011;10015;52.530;13.390;2023-10-09T09:13:59;4.40;;;2.33;;
19727;SDS011;10015;52.530;13.390;2023-10-09T09:16:40;7.20;;;2.80;;
19727;SDS011;10015;52.530;13.390;2023-10-09T09:19:14;8.30;;;3.63;;
19727;SDS011;10015;52.530;13.390;2023-10-09T09:21:50;4.57;;;3.10;;
19727;SDS011;10015;52.530;13.390;2023-10-09T09:24:56;6.47;;;2.97;;
19727;SDS011;10015;52.530;13.390;2023-10-09T09:27:44;4.77;;;2.70;;
19727;SDS011;10015;52.530;13.390;2023-10-09T09:32:52;4.47;;;2.50;;
19727;SDS011;10015;52.530;13.390;2023-10-09T09:35:37;5.10;;;3.00;;
19727;SDS011;10015;52.530;13.390;2023-10-09T09:38:08;5.80;;;3.07;;
19727;SDS011;10015;52.530;13.390;2023-10-09T09:40:43;5.57;;;3.57;;
19727;SDS011;10015;52.530;13.390;2023-10-09T09:43:10;5.20;;;3.30;;
19727;SDS011;10015;52.530;13.390;2023-10-09T09:45:46;6.23;;;3.47;;
19727;SDS011;10015;52.530;13.390;2023-10-09T09:48:15;5.03;;;3.00;;
19727;SDS011;10015;52.530;13.390;2023-10-09T09:50:43;6.63;;;3.20;;
19727;SDS011;10015;52.530;13.390;2023-10-09T09:53:14;10.30;;;4.70;;
19727;SDS011;10015;52.530;13.390;2023-10-09T09:55:51;10.97;;;6.17;;
19727;SDS011;10015;52.530;13.390;2023-10-09T09:58:25;8.07;;;3.70;;
19727;SDS011;10015;52.530;13.390;2023-10-09T10:01:08;6.90;;;4.00;;
19727;SDS011;10015;52.530;13.390;2023-10-09T10:04:07;5.53;;;3.53;;
19727;SDS011;10015;52.530;13.390;2023-10-09T10:06:38;5.67;;;3.40;;
19727;SDS011;10015;52.530;13.390;2023-10-09T10:09:08;8.57;;;3.70;;
19727;SDS011;10015;52.530;13.390;2023-10-09T10:11:43;7.70;;;3.63;;
19727;SDS011;10015;52.530;13.390;2023-10-09T10:14:14;6.50;;;3.53;;
19727;SDS011;10015;52.530;13.390;2023-10-09T10:17:06;8.73;;;4.13;;
19727;SDS011;10015;52.530;13.390;2023-10-09T10:22:46;6.23;;;4.03;;
19727;SDS011;10015;52.530;13.390;2023-10-09T10:31:05;7.03;;;3.80;;
19727;SDS011;10015;52.530;13.390;2023-10-09T10:34:03;9.70;;;3.73;;
19727;SDS011;10015;52.530;13.390;2023-10-09T10:36:32;8.37;;;4.30;;
19727;SDS011;10015;52.530;13.390;2023-10-09T10:39:00;9.83;;;4.73;;
19727;SDS011;10015;52.530;13.390;2023-10-09T10:41:42;6.40;;;4.10;;
19727;SDS011;10015;52.530;13.390;2023-10-09T10:44:33;9.03;;;3.67;;
19727;SDS011;10015;52.530;13.390;2023-10-09T10:47:02;7.73;;;4.17;;
19727;SDS011;10015;52.530;13.390;2023-10-09T10:49:29;5.87;;;3.80;;
19727;SDS011;10015;52.530;13.390;2023-10-09T10:52:06;5.57;;;3.50;;
19727;SDS011;10015;52.530;13.390;2023-10-09T10:54:43;5.50;;;3.80;;
19727;SDS011;10015;52.530;13.390;2023-10-09T10:57:19;5.43;;;3.43;;
19727;SDS011;10015;52.530;13.390;2023-10-09T10:59:58;6.23;;;3.97;;
19727;SDS011;10015;52.530;13.390;2023-10-09T11:02:39;7.30;;;3.80;;
19727;SDS011;10015;52.530;13.390;2023-10-09T11:05:08;6.93;;;4.13;;
19727;SDS011;10015;52.530;13.390;2023-10-09T11:07:49;8.17;;;4.20;;
19727;SDS011;10015;52.530;13.390;2023-10-09T11:10:22;7.37;;;3.93;;
19727;SDS011;10015;52.530;13.390;2023-10-09T11:12:57;6.83;;;4.03;;
19727;SDS011;10015;52.530;13.390;2023-10-09T11:15:35;7.33;;;4.10;;
19727;SDS011;10015;52.530;13.390;2023-10-09T11:18:14;5.17;;;3.93;;
19727;SDS011;10015;52.530;13.390;2023-10-09T11:20:52;10.20;;;4.63;;
19727;SDS011;10015;52.530;13.390;2023-10-09T11:23:29;6.87;;;4.60;;
19727;SDS011;10015;52.530;13.390;2023-10-09T11:25:59;6.77;;;4.37;;
19727;SDS011;10015;52.530;13.390;2023-10-09T11:31:58;7.17;;;4.07;;
19727;SDS011;10015;52.530;13.390;2023-10-09T11:34:31;7.40;;;4.70;;
19727;SDS011;10015;52.530;13.390;2023-10-09T11:37:15;7.33;;;4.37;;
19727;SDS011;10015;52.530;13.390;2023-10-09T11:39:41;10.80;;;5.13;;
19727;SDS011;10015;52.530;13.390;2023-10-09T11:42:19;7.83;;;4.73;;
19727;SDS011;10015;52.530;13.390;2023-10-09T11:45:04;5.67;;;4.43;;
19727;SDS011;10015;52.530;13.390;2023-10-09T11:47:48;6.13;;;4.10;;
19727;SDS011;10015;52.530;13.390;2023-10-09T11:50:44;7.70;;;4.37;;
19727;SDS011;10015;52.530;13.390;2023-10-09T11:53:39;6.80;;;4.70;;
19727;SDS011;10015;52.530;13.390;2023-10-09T11:56:11;7.93;;;4.67;;
19727;SDS011;10015;52.530;13.390;2023-10-09T11:58:42;9.00;;;5.57;;
19727;SDS011;10015;52.530;13.390;2023-10-09T12:01:10;9.33;;;5.30;;
19727;SDS011;10015;52.530;13.390;2023-10-09T12:03:45;8.13;;;5.40;;
19727;SDS011;10015;52.530;13.390;2023-10-09T12:06:16;8.57;;;4.73;;
19727;SDS011;10015;52.530;13.390;2023-10-09T12:08:48;9.17;;;4.93;;
19727;SDS011;10015;52.530;13.390;2023-10-09T12:11:15;9.47;;;5.00;;
19727;SDS011;10015;52.530;13.390;2023-10-09T12:13:48;8.07;;;4.80;;
19727;SDS011;10015;52.530;13.390;2023-10-09T12:16:14;9.23;;;5.57;;
19727;SDS011;10015;52.530;13.390;2023-10-09T12:18:43;9.93;;;5.27;;
19727;SDS011;10015;52.530;13.390;2023-10-09T12:21:18;6.70;;;4.57;;
19727;SDS011;10015;52.530;13.390;2023-10-09T12:23:45;6.60;;;4.47;;
19727;SDS011;10015;52.530;13.390;2023-10-09T12:26:15;9.67;;;5.37;;
19727;SDS011;10015;52.530;13.390;2023-10-09T12:28:42;10.63;;;5.47;;
19727;SDS011;10015;52.530;13.390;2023-10-09T12:31:20;7.93;;;5.73;;
19727;SDS011;10015;52.530;13.390;2023-10-09T12:33:46;8.23;;;5.20;;
19727;SDS011;10015;52.530;13.390;2023-10-09T12:36:13;8.07;;;5.47;;
19727;SDS011;10015;52.530;13.390;2023-10-09T12:38:46;9.07;;;5.53;;
19727;SDS011;10015;52.530;13.390;2023-10-09T12:41:19;9.17;;;5.60;;
19727;SDS011;10015;52.530;13.390;2023-10-09T12:43:52;8.20;;;5.17;;
19727;SDS011;10015;52.530;13.390;2023-10-09T12:46:18;9.63;;;6.00;;
19727;SDS011;10015;52.530;13.390;2023-10-09T12:48:51;8.90;;;5.83;;
19727;SDS011;10015;52.530;13.390;2023-10-09T12:51:19;11.47;;;6.13;;
19727;SDS011;10015;52.530;13.390;2023-10-09T12:53:51;8.63;;;5.73;;
19727;SDS011;10015;52.530;13.390;2023-10-09T12:56:22;9.13;;;5.60;;
19727;SDS011;10015;52.530;13.390;2023-10-09T12:59:04;10.60;;;6.30;;
19727;SDS011;10015;52.530;13.390;2023-10-09T13:01:32;9.40;;;6.00;;
19727;SDS011;10015;52.530;13.390;2023-10-09T13:03:58;8.50;;;5.60;;
19727;SDS011;10015;52.530;13.390;2023-10-09T13:06:27;11.70;;;7.07;;
19727;SDS011;10015;52.530;13.390;2023-10-09T13:08:53;10.30;;;6.60;;
19727;SDS011;10015;52.530;13.390;2023-10-09T13:11:24;10.13;;;6.53;;
19727;SDS011;10015;52.530;13.390;2023-10-09T13:13:51;11.90;;;7.40;;
19727;SDS011;10015;52.530;13.390;2023-10-09T13:16:21;11.27;;;7.10;;
19727;SDS011;10015;52.530;13.390;2023-10-09T13:18:54;10.60;;;7.13;;
19727;SDS011;10015;52.530;13.390;2023-10-09T13:21:26;15.50;;;7.53;;
19727;SDS011;10015;52.530;13.390;2023-10-09T13:23:57;12.90;;;8.00;;
19727;SDS011;10015;52.530;13.390;2023-10-09T13:26:25;13.93;;;7.47;;
19727;SDS011;10015;52.530;13.390;2023-10-09T13:28:56;12.33;;;8.43;;
19727;SDS011;10015;52.530;13.390;2023-10-09T13:31:23;14.80;;;8.70;;
19727;SDS011;10015;52.530;13.390;2023-10-09T13:33:52;16.07;;;8.50;;
19727;SDS011;10015;52.530;13.390;2023-10-09T13:36:26;14.33;;;8.10;;
19727;SDS011;10015;52.530;13.390;2023-10-09T13:38:53;12.77;;;7.43;;
19727;SDS011;10015;52.530;13.390;2023-10-09T13:41:20;12.60;;;8.37;;
19727;SDS011;10015;52.530;13.390;2023-10-09T13:43:46;16.63;;;9.17;;
19727;SDS011;10015;52.530;13.390;2023-10-09T13:46:13;14.60;;;8.40;;
19727;SDS011;10015;52.530;13.390;2023-10-09T13:48:43;14.10;;;8.27;;
19727;SDS011;10015;52.530;13.390;2023-10-09T13:51:14;13.27;;;9.10;;
19727;SDS011;10015;52.530;13.390;2023-10-09T13:53:46;11.47;;;8.17;;
19727;SDS011;10015;52.530;13.390;2023-10-09T13:56:20;11.73;;;7.90;;
19727;SDS011;10015;52.530;13.390;2023-10-09T13:58:52;12.50;;;7.33;;
19727;SDS011;10015;52.530;13.390;2023-10-09T14:01:20;11.70;;;7.93;;
19727;SDS011;10015;52.530;13.390;2023-10-09T14:03:56;11.53;;;7.70;;
19727;SDS011;10015;52.530;13.390;2023-10-09T14:06:23;9.93;;;7.23;;
19727;SDS011;10015;52.530;13.390;2023-10-09T14:08:59;12.07;;;8.00;;
19727;SDS011;10015;52.530;13.390;2023-10-09T14:11:35;13.43;;;8.20;;
19727;SDS011;10015;52.530;13.390;2023-10-09T14:14:04;12.10;;;8.40;;
19727;SDS011;10015;52.530;13.390;2023-10-09T14:16:38;12.27;;;8.40;;
19727;SDS011;10015;52.530;13.390;2023-10-09T14:19:08;14.10;;;8.47;;
19727;SDS011;10015;52.530;13.390;2023-10-09T14:21:38;13.27;;;8.20;;
19727;SDS011;10015;52.530;13.390;2023-10-09T14:24:07;12.70;;;7.83;;
19727;SDS011;10015;52.530;13.390;2023-10-09T14:26:44;11.37;;;7.47;;
19727;SDS011;10015;52.530;13.390;2023-10-09T14:29:15;12.50;;;7.83;;
19727;SDS011;10015;52.530;13.390;2023-10-09T14:31:43;13.23;;;7.60;;
19727;SDS011;10015;52.530;13.390;2023-10-09T14:34:14;13.70;;;7.43;;
19727;SDS011;10015;52.530;13.390;2023-10-09T14:36:41;12.73;;;7.80;;
19727;SDS011;10015;52.530;13.390;2023-10-09T14:39:15;16.03;;;7.83;;
19727;SDS011;10015;52.530;13.390;2023-10-09T14:41:44;13.70;;;7.80;;
19727;SDS011;10015;52.530;13.390;2023-10-09T14:44:13;12.73;;;7.87;;
19727;SDS011;10015;52.530;13.390;2023-10-09T14:46:41;12.43;;;8.07;;
19727;SDS011;10015;52.530;13.390;2023-10-09T14:49:07;14.03;;;7.63;;
19727;SDS011;10015;52.530;13.390;2023-10-09T14:51:43;11.43;;;8.20;;
19727;SDS011;10015;52.530;13.390;2023-10-09T14:54:09;12.73;;;7.73;;
19727;SDS011;10015;52.530;13.390;2023-10-09T14:56:41;12.80;;;8.70;;
19727;SDS011;10015;52.530;13.390;2023-10-09T14:59:07;13.27;;;9.23;;
19727;SDS011;10015;52.530;13.390;2023-10-09T15:01:33;16.00;;;9.27;;
19727;SDS011;10015;52.530;13.390;2023-10-09T15:03:59;11.87;;;8.27;;
19727;SDS011;10015;52.530;13.390;2023-10-09T15:06:26;10.77;;;7.90;;
19727;SDS011;10015;52.530;13.390;2023-10-09T15:08:54;11.90;;;8.30;;
19727;SDS011;10015;52.530;13.390;2023-10-09T15:11:21;13.93;;;8.23;;
19727;SDS011;10015;52.530;13.390;2023-10-09T15:16:46;13.30;;;8.43;;
19727;SDS011;10015;52.530;13.390;2023-10-09T15:19:13;13.30;;;8.73;;
19727;SDS011;10015;52.530;13.390;2023-10-09T15:21:39;12.53;;;8.40;;
19727;SDS011;10015;52.530;13.390;2023-10-09T15:24:12;16.77;;;8.80;;
19727;SDS011;10015;52.530;13.390;2023-10-09T15:26:50;10.53;;;7.57;;
19727;SDS011;10015;52.530;13.390;2023-10-09T15:29:26;12.90;;;8.93;;
19727;SDS011;10015;52.530;13.390;2023-10-09T15:31:57;14.03;;;8.30;;
19727;SDS011;10015;52.530;13.390;2023-10-09T15:34:32;14.77;;;8.90;;
19727;SDS011;10015;52.530;13.390;2023-10-09T15:37:01;12.80;;;8.77;;
19727;SDS011;10015;52.530;13.390;2023-10-09T15:39:34;13.87;;;7.87;;
19727;SDS011;10015;52.530;13.390;2023-10-09T15:42:03;11.23;;;7.93;;